createdAt,value
2019-04-10T00:01:01.378Z,100.00
2019-04-10T00:03:35.460Z,100.00
2019-04-10T00:06:00.705Z,100.00
2019-04-10T00:08:30.367Z,100.00
2019-04-10T00:10:59.216Z,100.00
2019-04-10T00:13:28.935Z,100.00
2019-04-10T00:15:57.752Z,100.00
2019-04-10T00:18:26.582Z,100.00
2019-04-10T00:20:55.306Z,100.00
2019-04-10T00:23:24.821Z,100.00
2019-04-10T00:25:53.668Z,100.00
2019-04-10T00:28:23.439Z,100.00
2019-04-10T00:30:52.209Z,100.00
2019-04-10T00:33:22.880Z,100.00
2019-04-10T00:35:51.998Z,100.00
2019-04-10T00:38:21.636Z,100.00
2019-04-10T00:40:52.089Z,100.00
2019-04-10T00:43:20.849Z,100.00
2019-04-10T00:45:49.578Z,100.00
2019-04-10T00:48:18.358Z,100.00
2019-04-10T00:50:47.077Z,100.00
2019-04-10T00:53:16.905Z,100.00
2019-04-10T00:55:46.112Z,100.00
2019-04-10T00:58:14.957Z,100.00
2019-04-10T01:00:43.687Z,100.00
2019-04-10T01:03:15.565Z,100.00
2019-04-10T01:05:44.463Z,100.00
2019-04-10T01:08:13.558Z,100.00
2019-04-10T01:10:42.419Z,100.00
2019-04-10T01:13:11.157Z,100.00
2019-04-10T01:15:39.885Z,100.00
2019-04-10T01:18:09.452Z,100.00
2019-04-10T01:20:38.180Z,100.00
2019-04-10T01:23:07.869Z,100.00
2019-04-10T01:25:36.844Z,100.00
2019-04-10T01:28:06.517Z,100.00
2019-04-10T01:30:35.503Z,100.00
2019-04-10T01:33:04.296Z,100.00
2019-04-10T01:35:34.126Z,100.00
2019-04-10T01:38:05.611Z,100.00
2019-04-10T01:40:33.440Z,100.00
2019-04-10T01:43:08.267Z,100.00
2019-04-10T01:45:33.473Z,100.00
2019-04-10T01:48:02.292Z,100.00
2019-04-10T01:50:32.615Z,100.00
2019-04-10T01:53:01.665Z,100.00
2019-04-10T01:55:32.494Z,100.00
2019-04-10T01:58:03.107Z,100.00
2019-04-10T02:00:33.540Z,100.00
2019-04-10T02:03:03.428Z,100.00
2019-04-10T02:05:33.203Z,100.00
2019-04-10T02:08:08.601Z,100.00
2019-04-10T02:10:32.486Z,100.00
2019-04-10T02:13:01.315Z,100.00
2019-04-10T02:15:30.165Z,100.00
2019-04-10T02:17:59.211Z,100.00
2019-04-10T02:20:27.973Z,100.00
2019-04-10T02:22:56.696Z,100.00
2019-04-10T02:25:25.486Z,100.00
2019-04-10T02:27:54.507Z,100.00
2019-04-10T02:30:24.046Z,100.00
2019-04-10T02:32:54.551Z,100.00
2019-04-10T02:35:24.581Z,100.00
2019-04-10T02:37:56.058Z,100.00
2019-04-10T02:40:25.472Z,100.00
2019-04-10T02:42:54.790Z,100.00
2019-04-10T02:45:24.183Z,100.00
2019-04-10T02:47:54.920Z,100.00
2019-04-10T02:50:25.097Z,100.00
2019-04-10T02:52:55.022Z,100.00
2019-04-10T02:55:25.024Z,100.00
2019-04-10T02:57:54.344Z,100.00
2019-04-10T03:00:25.095Z,100.00
2019-04-10T03:02:56.602Z,100.00
2019-04-10T03:05:27.232Z,100.00
2019-04-10T03:07:55.995Z,100.00
2019-04-10T03:10:33.765Z,100.00
2019-04-10T03:12:56.503Z,100.00
2019-04-10T03:15:25.400Z,100.00
2019-04-10T03:17:54.522Z,100.00
2019-04-10T03:20:24.514Z,100.00
2019-04-10T03:22:53.810Z,100.00
2019-04-10T03:25:24.562Z,100.00
2019-04-10T03:27:54.396Z,100.00
2019-04-10T03:30:23.778Z,100.00
2019-04-10T03:33:11.001Z,100.00
2019-04-10T03:35:38.797Z,100.00
2019-04-10T03:38:07.798Z,100.00
2019-04-10T03:40:37.578Z,100.00
2019-04-10T03:43:07.367Z,100.00
2019-04-10T03:45:36.964Z,100.00
2019-04-10T03:48:06.436Z,100.00
2019-04-10T03:50:36.192Z,100.00
2019-04-10T03:53:05.501Z,100.00
2019-04-10T03:55:34.912Z,100.00
2019-04-10T03:58:03.659Z,100.00
2019-04-10T04:00:32.389Z,100.00
2019-04-10T04:03:02.501Z,100.00
2019-04-10T04:05:31.381Z,100.00
2019-04-10T04:08:01.210Z,100.00
2019-04-10T04:10:30.778Z,100.00
2019-04-10T04:13:00.173Z,100.00
2019-04-10T04:15:30.217Z,100.00
2019-04-10T04:18:00.255Z,100.00
2019-04-10T04:20:29.062Z,100.00
2019-04-10T04:22:57.788Z,100.00
2019-04-10T04:25:26.554Z,100.00
2019-04-10T04:27:55.293Z,100.00
2019-04-10T04:30:26.980Z,100.00
2019-04-10T04:32:56.076Z,100.00
2019-04-10T04:35:25.697Z,100.00
2019-04-10T04:37:54.957Z,100.00
2019-04-10T04:40:23.892Z,100.00
2019-04-10T04:42:53.569Z,100.00
2019-04-10T04:45:23.484Z,100.00
2019-04-10T04:47:52.443Z,100.00
2019-04-10T04:50:21.169Z,100.00
2019-04-10T04:52:49.897Z,100.00
2019-04-10T04:55:19.705Z,100.00
2019-04-10T04:57:49.173Z,100.00
2019-04-10T05:00:17.987Z,100.00
2019-04-10T05:02:51.488Z,100.00
2019-04-10T05:05:20.220Z,100.00
2019-04-10T05:07:56.373Z,100.00
2019-04-10T05:10:19.499Z,100.00
2019-04-10T05:12:49.403Z,100.00
2019-04-10T05:15:18.559Z,100.00
2019-04-10T05:17:47.461Z,100.00
2019-04-10T05:20:17.030Z,100.00
2019-04-10T05:22:45.813Z,100.00
2019-04-10T05:25:14.681Z,100.00
2019-04-10T05:27:43.531Z,100.00
2019-04-10T05:30:12.905Z,100.00
2019-04-10T05:32:41.870Z,100.00
2019-04-10T05:35:11.595Z,100.00
2019-04-10T05:37:40.409Z,100.00
2019-04-10T05:40:09.776Z,100.00
2019-04-10T05:42:39.525Z,100.00
2019-04-10T05:45:09.183Z,100.00
2019-04-10T05:47:38.792Z,100.00
2019-04-10T05:50:07.765Z,100.00
2019-04-10T05:52:37.464Z,100.00
2019-04-10T05:55:06.851Z,100.00
2019-04-10T05:57:35.590Z,100.00
2019-04-10T06:00:08.979Z,100.00
2019-04-10T06:02:37.729Z,100.00
2019-04-10T06:05:07.904Z,100.00
2019-04-10T06:07:37.140Z,100.00
2019-04-10T06:10:10.211Z,100.00
2019-04-10T06:12:38.584Z,100.00
2019-04-10T06:15:07.926Z,100.00
2019-04-10T06:17:36.747Z,100.00
2019-04-10T06:20:07.526Z,100.00
2019-04-10T06:22:36.901Z,100.00
2019-04-10T06:25:10.632Z,100.00
2019-04-10T06:27:38.857Z,100.00
2019-04-10T06:30:09.989Z,100.00
2019-04-10T06:32:39.771Z,100.00
2019-04-10T06:35:09.355Z,100.00
2019-04-10T06:37:38.131Z,100.00
2019-04-10T06:40:15.289Z,100.00
2019-04-10T06:42:45.353Z,100.00
2019-04-10T06:45:09.379Z,100.00
2019-04-10T06:47:38.484Z,100.00
2019-04-10T06:50:08.118Z,100.00
2019-04-10T06:52:36.847Z,100.00
2019-04-10T06:55:07.135Z,100.00
2019-04-10T06:57:47.641Z,100.00
2019-04-10T07:00:13.691Z,100.00
2019-04-10T07:02:42.137Z,100.00
2019-04-10T07:05:12.404Z,100.00
2019-04-10T07:07:50.913Z,100.00
2019-04-10T07:10:22.536Z,100.00
2019-04-10T07:12:43.769Z,100.00
2019-04-10T07:15:12.756Z,99.99
2019-04-10T07:17:41.974Z,97.57
2019-04-10T07:20:15.013Z,98.52
2019-04-10T07:22:46.648Z,98.32
2019-04-10T07:25:15.645Z,100.00
2019-04-10T07:27:45.811Z,99.71
2019-04-10T07:30:15.363Z,98.90
2019-04-10T07:32:48.676Z,97.23
2019-04-10T07:35:19.575Z,95.88
2019-04-10T07:37:46.555Z,94.73
2019-04-10T07:40:16.683Z,94.54
2019-04-10T07:42:46.281Z,94.14
2019-04-10T07:45:15.516Z,95.27
2019-04-10T07:47:44.370Z,93.22
2019-04-10T07:50:14.137Z,92.43
2019-04-10T07:52:43.693Z,92.14
2019-04-10T07:55:12.885Z,93.63
2019-04-10T07:57:44.682Z,90.80
2019-04-10T08:00:14.264Z,92.28
2019-04-10T08:02:43.153Z,93.76
2019-04-10T08:05:12.262Z,94.35
2019-04-10T08:07:41.086Z,93.57
2019-04-10T08:10:11.977Z,89.58
2019-04-10T08:12:47.576Z,89.37
2019-04-10T08:15:11.512Z,91.20
2019-04-10T08:17:40.995Z,91.26
2019-04-10T08:20:10.426Z,89.93
2019-04-10T08:22:39.426Z,91.09
2019-04-10T08:25:09.009Z,89.03
2019-04-10T08:27:38.462Z,87.16
2019-04-10T08:30:10.945Z,85.16
2019-04-10T08:32:50.916Z,88.09
2019-04-10T08:35:11.110Z,84.74
2019-04-10T08:37:41.067Z,84.13
2019-04-10T08:40:11.476Z,84.24
2019-04-10T08:42:43.282Z,85.51
2019-04-10T08:45:11.392Z,85.45
2019-04-10T08:47:40.312Z,81.28
2019-04-10T08:50:09.752Z,80.73
2019-04-10T08:52:39.097Z,83.66
2019-04-10T08:55:10.134Z,83.79
2019-04-10T08:57:38.907Z,85.12
2019-04-10T09:00:10.171Z,83.05
2019-04-10T09:02:39.094Z,84.06
2019-04-10T09:05:09.190Z,83.22
2019-04-10T09:07:38.280Z,82.03
2019-04-10T09:10:10.244Z,81.76
2019-04-10T09:12:39.066Z,84.18
2019-04-10T09:15:07.925Z,83.68
2019-04-10T09:17:37.671Z,82.61
2019-04-10T09:20:07.328Z,84.48
2019-04-10T09:22:49.802Z,84.04
2019-04-10T09:25:08.896Z,83.35
2019-04-10T09:27:37.966Z,82.32
2019-04-10T09:30:08.847Z,81.75
2019-04-10T09:32:38.890Z,81.18
2019-04-10T09:35:08.815Z,82.28
2019-04-10T09:37:38.081Z,80.70
2019-04-10T09:40:08.113Z,81.25
2019-04-10T09:42:36.862Z,80.60
2019-04-10T09:45:06.194Z,83.83
2019-04-10T09:47:35.001Z,82.75
2019-04-10T09:50:05.588Z,77.57
2019-04-10T09:52:36.020Z,81.05
2019-04-10T09:55:05.914Z,77.87
2019-04-10T09:57:34.708Z,77.29
2019-04-10T10:00:05.211Z,77.22
2019-04-10T10:02:34.180Z,78.48
2019-04-10T10:05:05.023Z,76.90
2019-04-10T10:07:34.866Z,78.32
2019-04-10T10:10:05.099Z,76.95
2019-04-10T10:12:34.356Z,77.82
2019-04-10T10:15:03.829Z,77.41
2019-04-10T10:17:32.875Z,77.02
2019-04-10T10:20:01.853Z,73.34
2019-04-10T10:22:31.713Z,75.13
2019-04-10T10:25:00.773Z,75.30
2019-04-10T10:27:30.137Z,74.47
2019-04-10T10:29:59.940Z,74.83
2019-04-10T10:32:28.980Z,73.57
2019-04-10T10:34:58.769Z,73.52
2019-04-10T10:37:27.671Z,71.21
2019-04-10T10:39:57.195Z,73.68
2019-04-10T10:42:25.925Z,72.87
2019-04-10T10:44:54.660Z,70.93
2019-04-10T10:47:24.311Z,69.45
2019-04-10T10:49:53.031Z,73.49
2019-04-10T10:52:21.777Z,68.15
2019-04-10T10:54:51.641Z,71.24
2019-04-10T10:57:20.363Z,70.31
2019-04-10T10:59:49.437Z,69.12
2019-04-10T11:02:19.219Z,71.81
2019-04-10T11:04:48.104Z,70.43
2019-04-10T11:07:16.826Z,69.52
2019-04-10T11:09:45.584Z,68.55
2019-04-10T11:12:14.710Z,67.65
2019-04-10T11:14:43.710Z,64.99
2019-04-10T11:17:13.435Z,67.07
2019-04-10T11:19:43.414Z,68.28
2019-04-10T11:22:14.083Z,67.90
2019-04-10T11:24:44.518Z,69.38
2019-04-10T11:27:14.360Z,69.51
2019-04-10T11:29:45.274Z,69.77
2019-04-10T11:32:14.399Z,70.69
2019-04-10T11:34:43.491Z,68.74
2019-04-10T11:37:23.376Z,69.37
2019-04-10T11:42:14.571Z,72.06
2019-04-10T11:44:45.616Z,70.43
2019-04-10T11:47:14.906Z,64.35
2019-04-10T11:49:45.182Z,64.86
2019-04-10T11:52:15.918Z,64.15
2019-04-10T11:54:46.413Z,64.76
2019-04-10T11:57:19.459Z,64.43
2019-04-10T11:59:50.963Z,65.46
2019-04-10T12:12:21.733Z,65.92
2019-04-10T12:14:52.060Z,65.09
2019-04-10T12:17:20.832Z,66.61
2019-04-10T12:19:49.557Z,66.71
2019-04-10T12:22:19.160Z,65.86
2019-04-10T12:24:49.699Z,66.87
2019-04-10T12:27:18.459Z,63.87
2019-04-10T12:29:47.232Z,67.01
2019-04-10T12:32:16.655Z,66.52
2019-04-10T12:34:46.506Z,65.57
2019-04-10T12:37:15.458Z,65.50
2019-04-10T12:39:45.344Z,65.50
2019-04-10T12:42:14.230Z,67.79
2019-04-10T12:44:43.007Z,68.95
2019-04-10T12:47:11.726Z,66.66
2019-04-10T12:49:41.442Z,67.97
2019-04-10T12:52:14.283Z,68.95
2019-04-10T12:54:43.082Z,68.23
2019-04-10T12:57:12.717Z,68.66
2019-04-10T12:59:41.785Z,65.59
2019-04-10T13:02:11.932Z,66.89
2019-04-10T13:04:41.209Z,65.60
2019-04-10T13:07:10.018Z,67.30
2019-04-10T13:09:38.686Z,65.96
2019-04-10T13:12:07.411Z,67.98
2019-04-10T13:14:36.863Z,64.56
2019-04-10T13:17:06.775Z,67.52
2019-04-10T13:19:37.477Z,65.67
2019-04-10T13:22:07.390Z,65.52
2019-04-10T13:24:36.193Z,66.29
2019-04-10T13:27:04.874Z,65.60
2019-04-10T13:29:33.600Z,65.10
2019-04-10T13:32:03.410Z,64.09
2019-04-10T13:34:33.281Z,61.75
2019-04-10T13:37:02.323Z,61.31
2019-04-10T13:39:31.043Z,60.44
2019-04-10T13:42:00.913Z,54.55
2019-04-10T13:44:30.805Z,58.38
2019-04-10T13:46:59.545Z,55.35
2019-04-10T13:49:28.412Z,56.41
2019-04-10T13:51:57.191Z,59.19
2019-04-10T13:54:26.423Z,55.88
2019-04-10T13:56:55.265Z,57.62
2019-04-10T13:59:24.832Z,57.89
2019-04-10T14:01:53.576Z,57.32
2019-04-10T14:04:22.942Z,55.92
2019-04-10T14:06:51.862Z,54.16
2019-04-10T14:09:34.398Z,54.46
2019-04-10T14:11:51.278Z,56.06
2019-04-10T14:14:20.385Z,54.76
2019-04-10T14:16:49.088Z,54.30
2019-04-10T14:19:17.809Z,51.82
2019-04-10T14:21:46.695Z,51.94
2019-04-10T14:24:15.827Z,51.26
2019-04-10T14:26:49.512Z,54.99
2019-04-10T14:29:16.758Z,55.75
2019-04-10T14:31:47.062Z,53.61
2019-04-10T14:34:18.426Z,58.24
2019-04-10T14:36:46.468Z,55.50
2019-04-10T14:39:19.637Z,55.61
2019-04-10T14:41:46.381Z,53.96
2019-04-10T14:44:15.304Z,54.50
2019-04-10T14:46:44.292Z,50.20
2019-04-10T14:49:13.215Z,52.08
2019-04-10T14:51:44.320Z,45.64
2019-04-10T14:54:15.562Z,47.30
2019-04-10T14:56:44.523Z,47.11
2019-04-10T14:59:14.182Z,48.54
2019-04-10T15:01:44.139Z,51.07
2019-04-10T15:04:13.012Z,53.90
2019-04-10T15:06:41.860Z,55.72
2019-04-10T15:09:24.940Z,60.29
2019-04-10T15:11:49.094Z,60.66
2019-04-10T15:14:17.920Z,61.23
2019-04-10T15:16:53.420Z,62.34
2019-04-10T15:19:18.414Z,63.36
2019-04-10T15:21:47.298Z,64.42
2019-04-10T15:24:16.009Z,69.16
2019-04-10T15:26:44.814Z,71.33
2019-04-10T15:29:14.243Z,70.72
2019-04-10T15:31:44.021Z,71.16
2019-04-10T15:34:13.967Z,72.37
2019-04-10T15:36:44.739Z,71.13
2019-04-10T15:39:13.364Z,71.85
2019-04-10T15:41:43.398Z,72.07
2019-04-10T15:44:12.207Z,73.94
2019-04-10T15:46:41.475Z,74.69
2019-04-10T15:49:11.092Z,75.43
2019-04-10T15:51:39.953Z,74.75
2019-04-10T15:54:09.741Z,74.85
2019-04-10T15:56:40.196Z,74.38
2019-04-10T15:59:10.057Z,73.37
2019-04-10T16:01:39.308Z,73.85
2019-04-10T16:04:09.736Z,73.91
2019-04-10T16:06:39.654Z,74.99
2019-04-10T16:09:09.247Z,74.79
2019-04-10T16:11:39.770Z,77.03
2019-04-10T16:14:20.061Z,77.45
2019-04-10T16:16:54.915Z,76.96
2019-04-10T16:19:28.731Z,76.81
2019-04-10T16:21:58.278Z,77.26
2019-04-10T16:24:28.950Z,78.90
2019-04-10T16:26:57.955Z,79.31
2019-04-10T16:29:26.808Z,80.54
2019-04-10T16:31:56.588Z,80.61
2019-04-10T16:34:26.798Z,81.20
2019-04-10T16:36:55.700Z,81.95
2019-04-10T16:39:25.680Z,82.98
2019-04-10T16:41:54.603Z,84.32
2019-04-10T16:44:23.299Z,84.08
2019-04-10T16:46:53.108Z,84.69
2019-04-10T16:49:22.493Z,85.81
2019-04-10T16:51:52.372Z,86.84
2019-04-10T16:54:21.601Z,87.72
2019-04-10T16:56:50.642Z,88.23
2019-04-10T16:59:19.367Z,87.42
2019-04-10T17:01:48.134Z,87.00
2019-04-10T17:04:16.862Z,86.22
2019-04-10T17:06:46.385Z,87.29
2019-04-10T17:09:16.927Z,88.44
2019-04-10T17:11:45.649Z,88.59
2019-04-10T17:14:15.174Z,88.37
2019-04-10T17:16:44.118Z,89.32
2019-04-10T17:19:13.854Z,89.89
2019-04-10T17:21:42.665Z,89.89
2019-04-10T17:24:11.521Z,90.69
2019-04-10T17:26:41.283Z,90.55
2019-04-10T17:29:10.036Z,90.73
2019-04-10T17:31:40.417Z,90.46
2019-04-10T17:34:10.351Z,90.62
2019-04-10T17:36:39.151Z,91.49
2019-04-10T17:39:11.220Z,91.31
2019-04-10T17:41:40.081Z,90.80
2019-04-10T17:44:09.633Z,90.21
2019-04-10T17:46:39.513Z,90.69
2019-04-10T17:49:09.121Z,90.98
2019-04-10T17:51:38.751Z,91.26
2019-04-10T17:54:07.630Z,91.44
2019-04-10T17:56:36.360Z,91.56
2019-04-10T17:59:05.837Z,91.69
2019-04-10T18:01:34.848Z,91.87
2019-04-10T18:04:03.865Z,92.62
2019-04-10T18:06:33.306Z,93.15
2019-04-10T18:09:02.226Z,93.24
2019-04-10T18:11:32.070Z,93.94
2019-04-10T18:14:00.960Z,94.53
2019-04-10T18:16:29.875Z,95.53
2019-04-10T18:19:00.012Z,95.97
2019-04-10T18:21:28.906Z,96.51
2019-04-10T18:23:57.907Z,97.04
2019-04-10T18:26:27.730Z,97.38
2019-04-10T18:28:56.581Z,97.93
2019-04-10T18:31:26.750Z,98.08
2019-04-10T18:33:55.881Z,97.99
2019-04-10T18:36:24.595Z,98.17
2019-04-10T18:38:54.234Z,98.14
2019-04-10T18:41:24.139Z,97.30
2019-04-10T18:43:53.027Z,96.82
2019-04-10T18:46:22.423Z,96.73
2019-04-10T18:48:51.630Z,97.07
2019-04-10T18:51:21.435Z,95.84
2019-04-10T18:53:51.208Z,94.91
2019-04-10T18:56:20.790Z,95.56
2019-04-10T18:59:06.441Z,96.44
2019-04-10T19:01:43.197Z,96.15
2019-04-10T19:04:16.654Z,95.81
2019-04-10T19:06:51.110Z,96.75
2019-04-10T19:09:25.108Z,98.32
2019-04-10T19:11:51.065Z,98.48
2019-04-10T19:14:20.747Z,99.11
2019-04-10T19:16:49.934Z,100.00
2019-04-10T19:19:18.650Z,100.00
2019-04-10T19:21:48.438Z,100.00
2019-04-10T19:24:19.624Z,100.00
2019-04-10T19:26:48.493Z,100.00
2019-04-10T19:29:17.224Z,100.00
2019-04-10T19:31:47.799Z,100.00
2019-04-10T19:34:17.003Z,100.00
2019-04-10T19:36:45.978Z,100.00
2019-04-10T19:39:16.009Z,100.00
2019-04-10T19:41:44.945Z,100.00
2019-04-10T19:44:14.854Z,100.00
2019-04-10T19:46:43.975Z,100.00
2019-04-10T19:49:12.723Z,100.00
2019-04-10T19:51:42.564Z,100.00
2019-04-10T19:54:11.660Z,100.00
2019-04-10T19:56:40.537Z,100.00
2019-04-10T19:59:10.314Z,100.00
2019-04-10T20:01:39.441Z,100.00
2019-04-10T20:04:08.335Z,100.00
2019-04-10T20:06:37.073Z,100.00
2019-04-10T20:09:08.423Z,100.00
2019-04-10T20:11:42.117Z,100.00
2019-04-10T20:14:08.407Z,100.00
2019-04-10T20:16:37.550Z,100.00
2019-04-10T20:19:07.331Z,99.63
2019-04-10T20:21:36.436Z,99.25
2019-04-10T20:24:05.380Z,98.90
2019-04-10T20:26:34.924Z,98.43
2019-04-10T20:29:04.577Z,97.90
2019-04-10T20:31:35.303Z,97.68
2019-04-10T20:34:05.431Z,97.47
2019-04-10T20:36:35.192Z,97.68
2019-04-10T20:39:06.176Z,97.80
2019-04-10T20:41:47.793Z,98.01
2019-04-10T20:44:07.222Z,98.09
2019-04-10T20:46:36.230Z,98.00
2019-04-10T20:49:07.730Z,97.70
2019-04-10T20:51:35.596Z,97.93
2019-04-10T20:54:04.452Z,97.87
2019-04-10T20:56:36.908Z,98.09
2019-04-10T20:59:05.834Z,97.46
2019-04-10T21:01:35.437Z,97.63
2019-04-10T21:04:05.051Z,97.83
2019-04-10T21:06:34.060Z,97.75
2019-04-10T21:09:05.248Z,97.73
2019-04-10T21:11:34.069Z,97.51
2019-04-10T21:14:03.075Z,97.18
2019-04-10T21:16:33.632Z,97.35
2019-04-10T21:19:02.436Z,97.12
2019-04-10T21:21:31.122Z,97.24
2019-04-10T21:24:00.679Z,97.05
2019-04-10T21:26:30.409Z,96.88
2019-04-10T21:29:00.253Z,96.23
2019-04-10T21:31:43.057Z,96.16
2019-04-10T21:34:13.934Z,96.04
2019-04-10T21:36:43.457Z,95.72
2019-04-10T21:39:12.665Z,95.03
2019-04-10T21:41:42.393Z,95.10
2019-04-10T21:44:11.458Z,95.48
2019-04-10T21:46:41.690Z,95.41
2019-04-10T21:49:11.401Z,95.19
2019-04-10T21:51:40.791Z,94.87
2019-04-10T21:54:10.398Z,95.09
2019-04-10T21:56:39.193Z,95.04
2019-04-10T21:59:08.974Z,94.68
2019-04-10T22:01:38.758Z,94.41
2019-04-10T22:04:08.191Z,94.71
2019-04-10T22:06:39.796Z,95.27
2019-04-10T22:09:26.419Z,95.29
2019-04-10T22:11:57.419Z,95.10
2019-04-10T22:14:26.300Z,95.07
2019-04-10T22:16:55.253Z,95.27
2019-04-10T22:19:23.981Z,95.95
2019-04-10T22:21:53.693Z,95.94
2019-04-10T22:24:23.517Z,96.09
2019-04-10T22:26:52.324Z,95.92
2019-04-10T22:29:21.768Z,95.60
2019-04-10T22:31:51.302Z,95.87
2019-04-10T22:34:21.253Z,95.96
2019-04-10T22:36:50.372Z,96.31
2019-04-10T22:39:19.365Z,96.51
2019-04-10T22:41:48.373Z,96.78
2019-04-10T22:44:17.552Z,96.76
2019-04-10T22:46:46.794Z,96.91
2019-04-10T22:49:15.654Z,97.21
2019-04-10T22:51:44.413Z,97.54
2019-04-10T22:54:14.578Z,97.53
2019-04-10T22:56:43.490Z,97.61
2019-04-10T22:59:13.593Z,97.59
2019-04-10T23:01:43.243Z,97.69
2019-04-10T23:04:12.283Z,97.75
2019-04-10T23:06:41.638Z,97.52
2019-04-10T23:09:12.135Z,97.50
2019-04-10T23:11:43.558Z,97.47
2019-04-10T23:14:12.240Z,97.51
2019-04-10T23:16:41.337Z,97.10
2019-04-10T23:19:10.050Z,96.96
2019-04-10T23:21:38.779Z,96.24
2019-04-10T23:24:09.473Z,96.25
2019-04-10T23:26:39.453Z,95.84
2019-04-10T23:29:08.452Z,96.19
2019-04-10T23:31:37.414Z,96.58
2019-04-10T23:34:06.353Z,97.21
2019-04-10T23:36:35.137Z,97.52
2019-04-10T23:39:06.094Z,97.91
2019-04-10T23:41:35.804Z,98.15
2019-04-10T23:44:04.633Z,98.22
2019-04-10T23:46:34.618Z,98.08
2019-04-10T23:49:03.978Z,98.15
2019-04-10T23:51:32.798Z,97.96
2019-04-10T23:54:02.732Z,97.66
2019-04-10T23:56:31.595Z,97.41
2019-04-10T23:59:00.341Z,97.24
